createdAt,value
2024-02-08T00:00:31.292Z,7.47
2024-02-08T00:01:33.007Z,7.42
2024-02-08T00:02:34.701Z,7.44
2024-02-08T00:03:36.493Z,7.45
2024-02-08T00:04:38.708Z,7.45
2024-02-08T00:05:41.602Z,7.47
2024-02-08T00:06:43.249Z,7.50
2024-02-08T00:07:44.929Z,7.53
2024-02-08T00:08:46.570Z,7.57
2024-02-08T00:09:48.170Z,7.60
2024-02-08T00:10:49.840Z,7.63
2024-02-08T00:11:51.445Z,7.65
2024-02-08T00:12:53.049Z,7.67
2024-02-08T00:13:55.544Z,7.71
2024-02-08T00:14:57.167Z,7.71
2024-02-08T00:15:59.633Z,7.73
2024-02-08T00:17:04.269Z,7.75
2024-02-08T00:18:06.118Z,7.77
2024-02-08T00:19:07.752Z,7.79
2024-02-08T00:20:09.647Z,7.79
2024-02-08T00:21:11.943Z,7.80
2024-02-08T00:22:13.605Z,7.75
2024-02-08T00:23:15.665Z,7.71
2024-02-08T00:24:17.481Z,7.65
2024-02-08T00:25:20.016Z,7.68
2024-02-08T00:26:21.641Z,7.68
2024-02-08T00:27:23.321Z,7.69
2024-02-08T00:28:26.123Z,7.68
2024-02-08T00:29:28.453Z,7.69
2024-02-08T00:30:30.039Z,7.71
2024-02-08T00:31:31.732Z,7.72
2024-02-08T00:32:33.356Z,7.73
2024-02-08T00:33:35.205Z,7.71
2024-02-08T00:34:39.961Z,7.74
2024-02-08T00:35:41.725Z,7.74
2024-02-08T00:36:43.286Z,7.74
2024-02-08T00:37:49.039Z,7.75
2024-02-08T00:38:50.896Z,7.74
2024-02-08T00:39:52.557Z,7.72
2024-02-08T00:40:54.284Z,7.73
2024-02-08T00:41:58.562Z,7.74
2024-02-08T00:43:02.403Z,7.76
2024-02-08T00:44:05.239Z,7.77
2024-02-08T00:45:07.415Z,7.78
2024-02-08T00:46:16.895Z,7.74
2024-02-08T00:47:18.596Z,7.73
2024-02-08T00:48:23.032Z,7.73
2024-02-08T00:49:24.635Z,7.74
2024-02-08T00:50:27.199Z,7.74
2024-02-08T00:51:28.831Z,7.74
2024-02-08T00:52:30.467Z,7.74
2024-02-08T00:53:32.473Z,7.77
2024-02-08T00:54:36.495Z,7.78
2024-02-08T00:55:38.191Z,7.80
2024-02-08T00:56:43.060Z,7.78
2024-02-08T00:57:44.637Z,7.73
2024-02-08T00:58:48.291Z,7.72
2024-02-08T00:59:49.931Z,7.69
2024-02-08T01:00:54.461Z,7.60
2024-02-08T01:01:57.478Z,7.49
2024-02-08T01:03:00.390Z,7.44
2024-02-08T01:04:02.137Z,7.44
2024-02-08T01:05:04.372Z,7.32
2024-02-08T01:06:06.260Z,7.30
2024-02-08T01:07:07.874Z,7.29
2024-02-08T01:08:09.909Z,7.33
2024-02-08T01:09:11.557Z,7.34
2024-02-08T01:10:13.195Z,7.35
2024-02-08T01:11:14.821Z,7.36
2024-02-08T01:12:17.664Z,7.38
2024-02-08T01:13:19.750Z,7.42
2024-02-08T01:14:22.928Z,7.39
2024-02-08T01:15:24.653Z,7.40
2024-02-08T01:16:31.574Z,7.43
2024-02-08T01:17:36.131Z,7.44
2024-02-08T01:18:42.659Z,7.43
2024-02-08T01:19:44.920Z,7.45
2024-02-08T01:20:46.614Z,7.38
2024-02-08T01:21:48.210Z,7.38
2024-02-08T01:22:53.486Z,7.40
2024-02-08T01:23:55.117Z,7.40
2024-02-08T01:24:56.662Z,7.37
2024-02-08T01:25:58.295Z,7.31
2024-02-08T01:26:59.965Z,7.28
2024-02-08T01:28:01.856Z,7.19
2024-02-08T01:29:06.845Z,7.21
2024-02-08T01:30:09.127Z,7.26
2024-02-08T01:31:10.761Z,7.30
2024-02-08T01:32:16.693Z,7.34
2024-02-08T01:33:18.283Z,7.32
2024-02-08T01:34:25.213Z,7.21
2024-02-08T01:35:27.178Z,7.14
2024-02-08T01:36:28.803Z,7.10
2024-02-08T01:37:30.398Z,7.01
2024-02-08T01:38:32.023Z,6.98
2024-02-08T01:39:33.636Z,6.96
2024-02-08T01:40:36.415Z,6.94
2024-02-08T01:41:38.158Z,6.98
2024-02-08T01:42:39.696Z,7.03
2024-02-08T01:43:41.332Z,7.06
2024-02-08T01:44:47.722Z,7.08
2024-02-08T01:45:51.336Z,7.08
2024-02-08T01:46:53.744Z,7.10
2024-02-08T01:47:55.446Z,7.06
2024-02-08T01:48:57.511Z,7.05
2024-02-08T01:50:00.588Z,7.05
2024-02-08T01:51:03.804Z,7.05
2024-02-08T01:52:06.052Z,7.04
2024-02-08T01:53:15.440Z,7.07
2024-02-08T01:54:20.577Z,7.10
2024-02-08T01:55:22.345Z,7.08
2024-02-08T01:56:23.980Z,7.10
2024-02-08T01:57:25.641Z,7.12
2024-02-08T01:58:28.480Z,7.12
2024-02-08T01:59:32.830Z,7.15
2024-02-08T02:00:38.130Z,7.17
2024-02-08T02:01:47.785Z,7.17
2024-02-08T02:02:55.088Z,7.16
2024-02-08T02:03:56.988Z,7.16
2024-02-08T02:04:58.718Z,7.19
2024-02-08T02:06:01.002Z,7.20
2024-02-08T02:07:04.949Z,7.20
2024-02-08T02:08:07.135Z,7.20
2024-02-08T02:09:26.365Z,7.21
2024-02-08T02:10:31.670Z,7.20
2024-02-08T02:11:49.489Z,7.16
2024-02-08T02:12:51.138Z,7.10
2024-02-08T02:13:53.502Z,7.05
2024-02-08T02:14:55.328Z,6.96
2024-02-08T02:15:57.276Z,6.86
2024-02-08T02:17:15.134Z,6.80
2024-02-08T02:18:18.618Z,6.79
2024-02-08T02:19:20.320Z,6.82
2024-02-08T02:20:25.626Z,6.85
2024-02-08T02:21:28.367Z,6.85
2024-02-08T02:22:33.322Z,6.84
2024-02-08T02:23:35.041Z,6.82
2024-02-08T02:24:38.118Z,6.77
2024-02-08T02:25:40.083Z,6.70
2024-02-08T02:26:41.879Z,6.63
2024-02-08T02:27:44.169Z,6.63
2024-02-08T02:28:47.326Z,6.57
2024-02-08T02:29:54.566Z,6.62
2024-02-08T02:30:56.535Z,6.64
2024-02-08T02:32:00.998Z,6.63
2024-02-08T02:33:05.236Z,6.64
2024-02-08T02:34:07.356Z,6.64
2024-02-08T02:35:09.872Z,6.63
2024-02-08T02:36:15.747Z,6.63
2024-02-08T02:37:20.028Z,6.61
2024-02-08T02:38:25.415Z,6.62
2024-02-08T02:39:32.094Z,6.62
2024-02-08T02:40:35.282Z,6.64
2024-02-08T02:41:38.389Z,6.64
2024-02-08T02:42:39.955Z,6.61
2024-02-08T02:43:42.046Z,6.62
2024-02-08T02:44:44.013Z,6.63
2024-02-08T02:45:45.665Z,6.61
2024-02-08T02:46:47.555Z,6.49
2024-02-08T02:47:50.777Z,6.53
2024-02-08T02:48:52.572Z,6.57
2024-02-08T02:49:56.488Z,6.58
2024-02-08T02:50:59.877Z,6.53
2024-02-08T02:52:01.470Z,6.41
2024-02-08T02:53:03.290Z,6.27
2024-02-08T02:54:06.222Z,6.20
2024-02-08T02:55:10.636Z,6.07
2024-02-08T02:56:13.222Z,5.88
2024-02-08T02:57:16.209Z,5.84
2024-02-08T02:58:17.759Z,5.89
2024-02-08T02:59:19.440Z,5.87
2024-02-08T03:00:25.243Z,5.91
2024-02-08T03:01:28.299Z,5.96
2024-02-08T03:02:30.274Z,5.93
2024-02-08T03:03:42.235Z,5.97
2024-02-08T03:04:44.270Z,5.87
2024-02-08T03:05:47.463Z,5.81
2024-02-08T03:06:54.401Z,5.80
2024-02-08T03:07:56.198Z,5.84
2024-02-08T03:08:59.160Z,5.81
2024-02-08T03:10:00.926Z,5.81
2024-02-08T03:11:04.451Z,5.77
2024-02-08T03:12:11.170Z,5.68
2024-02-08T03:13:13.017Z,5.71
2024-02-08T03:14:16.344Z,5.77
2024-02-08T03:15:19.252Z,5.82
2024-02-08T03:16:27.617Z,5.86
2024-02-08T03:17:30.276Z,5.89
2024-02-08T03:18:31.992Z,5.91
2024-02-08T03:19:37.493Z,5.95
2024-02-08T03:20:39.716Z,5.96
2024-02-08T03:21:41.528Z,5.95
2024-02-08T03:22:44.002Z,5.93
2024-02-08T03:23:49.692Z,5.87
2024-02-08T03:24:51.319Z,5.85
2024-02-08T03:25:52.939Z,5.87
2024-02-08T03:26:56.949Z,5.86
2024-02-08T03:27:58.700Z,5.78
2024-02-08T03:29:00.486Z,5.70
2024-02-08T03:30:03.733Z,5.71
2024-02-08T03:31:05.331Z,5.71
2024-02-08T03:32:09.471Z,5.74
2024-02-08T03:33:17.401Z,5.79
2024-02-08T03:34:31.425Z,5.81
2024-02-08T03:35:37.505Z,5.83
2024-02-08T03:36:39.205Z,5.86
2024-02-08T03:37:40.793Z,5.88
2024-02-08T03:38:42.369Z,5.93
2024-02-08T03:39:44.051Z,5.98
2024-02-08T03:40:45.644Z,5.98
2024-02-08T03:41:47.267Z,6.00
2024-02-08T03:42:52.005Z,6.04
2024-02-08T03:43:54.137Z,6.06
2024-02-08T03:44:55.737Z,6.10
2024-02-08T03:45:57.466Z,6.11
2024-02-08T03:47:09.648Z,6.10
2024-02-08T03:48:12.677Z,6.13
2024-02-08T03:49:14.517Z,6.13
2024-02-08T03:50:16.338Z,6.16
2024-02-08T03:51:18.667Z,6.18
2024-02-08T03:52:20.321Z,6.17
2024-02-08T03:53:22.302Z,6.15
2024-02-08T03:54:25.986Z,6.09
2024-02-08T03:55:27.907Z,6.07
2024-02-08T03:56:38.087Z,6.07
2024-02-08T03:57:40.498Z,6.09
2024-02-08T03:58:42.182Z,6.12
2024-02-08T03:59:43.868Z,6.13
2024-02-08T04:00:48.862Z,6.16
2024-02-08T04:02:02.006Z,6.17
2024-02-08T04:03:07.869Z,6.07
2024-02-08T04:04:17.457Z,5.99
2024-02-08T04:05:27.959Z,5.93
2024-02-08T04:06:50.422Z,5.85
2024-02-08T04:08:00.410Z,5.84
2024-02-08T04:09:10.465Z,5.85
2024-02-08T04:10:51.380Z,5.89
2024-02-08T04:12:11.844Z,5.89
2024-02-08T04:13:31.782Z,5.79
2024-02-08T04:14:52.096Z,5.69
2024-02-08T04:16:12.302Z,5.66
2024-02-08T04:17:32.301Z,5.63
2024-02-08T04:18:53.366Z,5.64
2024-02-08T04:20:13.454Z,5.62
2024-02-08T04:21:33.532Z,5.57
2024-02-08T04:22:53.595Z,5.60
2024-02-08T04:24:13.648Z,5.58
2024-02-08T04:25:33.590Z,5.59
2024-02-08T04:26:53.721Z,5.59
2024-02-08T04:28:18.110Z,5.61
2024-02-08T04:29:38.220Z,5.59
2024-02-08T04:30:58.084Z,5.53
2024-02-08T04:32:18.038Z,5.50
2024-02-08T04:33:38.204Z,5.48
2024-02-08T04:35:01.579Z,5.50
2024-02-08T04:36:21.690Z,5.49
2024-02-08T04:37:41.800Z,5.48
2024-02-08T04:39:02.051Z,5.47
2024-02-08T04:40:22.392Z,5.47
2024-02-08T04:41:42.401Z,5.51
2024-02-08T04:43:02.445Z,5.54
2024-02-08T04:44:22.903Z,5.60
2024-02-08T04:45:44.743Z,5.64
2024-02-08T04:47:06.023Z,5.68
2024-02-08T04:48:26.407Z,5.70
2024-02-08T04:49:46.425Z,5.73
2024-02-08T04:51:06.296Z,5.73
2024-02-08T04:52:26.184Z,5.70
2024-02-08T04:53:46.223Z,5.66
2024-02-08T04:54:48.334Z,5.68
2024-02-08T04:55:49.929Z,5.71
2024-02-08T04:56:51.927Z,5.75
2024-02-08T04:58:19.080Z,5.77
2024-02-08T04:59:23.471Z,5.80
2024-02-08T05:00:29.407Z,5.78
2024-02-08T05:01:31.076Z,5.79
2024-02-08T05:02:32.685Z,5.80
2024-02-08T05:03:38.418Z,5.79
2024-02-08T05:04:40.369Z,5.78
2024-02-08T05:05:45.116Z,5.80
2024-02-08T05:06:47.191Z,5.83
2024-02-08T05:07:50.129Z,5.84
2024-02-08T05:09:00.733Z,5.82
2024-02-08T05:10:03.291Z,5.83
2024-02-08T05:11:05.212Z,5.83
2024-02-08T05:12:08.649Z,5.86
2024-02-08T05:13:12.832Z,5.89
2024-02-08T05:14:14.480Z,5.90
2024-02-08T05:15:16.129Z,5.88
2024-02-08T05:16:18.725Z,5.83
2024-02-08T05:17:21.879Z,5.80
2024-02-08T05:18:23.621Z,5.80
2024-02-08T05:19:27.582Z,5.78
2024-02-08T05:20:30.805Z,5.80
2024-02-08T05:21:32.923Z,5.83
2024-02-08T05:22:35.095Z,5.86
2024-02-08T05:23:40.151Z,5.84
2024-02-08T05:24:41.996Z,5.84
2024-02-08T05:25:45.701Z,5.81
2024-02-08T05:26:47.738Z,5.80
2024-02-08T05:27:49.367Z,5.82
2024-02-08T05:28:53.135Z,5.83
2024-02-08T05:29:57.074Z,5.84
2024-02-08T05:30:59.073Z,5.82
2024-02-08T05:32:00.729Z,5.81
2024-02-08T05:33:03.169Z,5.81
2024-02-08T05:34:07.291Z,5.79
2024-02-08T05:35:20.547Z,5.81
2024-02-08T05:36:22.269Z,5.79
2024-02-08T05:37:26.690Z,5.77
2024-02-08T05:38:35.097Z,5.73
2024-02-08T05:39:37.672Z,5.65
2024-02-08T05:40:44.769Z,5.69
2024-02-08T05:41:46.393Z,5.60
2024-02-08T05:42:49.705Z,5.62
2024-02-08T05:43:53.301Z,5.64
2024-02-08T05:45:14.248Z,5.67
2024-02-08T05:46:26.880Z,5.69
2024-02-08T05:47:28.714Z,5.63
2024-02-08T05:48:34.684Z,5.62
2024-02-08T05:49:36.542Z,5.62
2024-02-08T05:50:38.323Z,5.64
2024-02-08T05:51:47.679Z,5.64
2024-02-08T05:52:52.953Z,5.64
2024-02-08T05:53:54.535Z,5.57
2024-02-08T05:54:56.428Z,5.52
2024-02-08T05:56:00.597Z,5.51
2024-02-08T05:57:04.704Z,5.56
2024-02-08T05:58:08.123Z,5.56
2024-02-08T05:59:10.651Z,5.54
2024-02-08T06:00:26.044Z,5.55
2024-02-08T06:01:31.223Z,5.60
2024-02-08T06:02:32.868Z,5.61
2024-02-08T06:03:39.381Z,5.60
2024-02-08T06:04:51.249Z,5.62
2024-02-08T06:06:07.452Z,5.62
2024-02-08T06:07:09.410Z,5.61
2024-02-08T06:08:26.509Z,5.60
2024-02-08T06:09:50.047Z,5.59
2024-02-08T06:10:53.935Z,5.57
2024-02-08T06:12:09.707Z,5.56
2024-02-08T06:13:15.435Z,5.49
2024-02-08T06:14:23.457Z,5.45
2024-02-08T06:15:37.042Z,5.28
2024-02-08T06:16:48.146Z,5.16
2024-02-08T06:17:59.213Z,5.07
2024-02-08T06:19:04.221Z,5.01
2024-02-08T06:20:11.077Z,4.94
2024-02-08T06:21:19.567Z,4.94
2024-02-08T06:22:26.935Z,4.93
2024-02-08T06:23:28.859Z,4.91
2024-02-08T06:24:33.708Z,4.93
2024-02-08T06:25:37.748Z,4.93
2024-02-08T06:26:39.455Z,4.89
2024-02-08T06:27:42.919Z,4.96
2024-02-08T06:28:56.802Z,5.01
2024-02-08T06:30:02.044Z,5.09
2024-02-08T06:31:17.496Z,5.13
2024-02-08T06:32:35.366Z,5.13
2024-02-08T06:33:44.205Z,5.16
2024-02-08T06:34:49.166Z,5.19
2024-02-08T06:35:57.756Z,5.19
2024-02-08T06:37:00.280Z,5.15
2024-02-08T06:38:03.799Z,5.11
2024-02-08T06:39:24.348Z,5.15
2024-02-08T06:40:38.442Z,5.13
2024-02-08T06:41:53.967Z,5.19
2024-02-08T06:43:14.645Z,5.29
2024-02-08T06:44:34.781Z,5.36
2024-02-08T06:45:48.267Z,5.46
2024-02-08T06:46:57.688Z,5.46
2024-02-08T06:48:02.166Z,5.53
2024-02-08T06:49:22.466Z,5.56
2024-02-08T06:50:42.904Z,5.73
2024-02-08T06:52:02.987Z,5.95
2024-02-08T06:53:23.264Z,6.19
2024-02-08T06:54:43.370Z,6.45
2024-02-08T06:56:03.381Z,6.71
2024-02-08T06:57:23.719Z,6.90
2024-02-08T06:58:43.422Z,7.11
2024-02-08T07:00:03.380Z,7.34
2024-02-08T07:01:23.965Z,7.55
2024-02-08T07:02:44.359Z,7.75
2024-02-08T07:04:04.439Z,7.95
2024-02-08T07:05:25.403Z,8.14
2024-02-08T07:06:45.272Z,8.32
2024-02-08T07:08:05.645Z,8.45
2024-02-08T07:09:26.310Z,8.58
2024-02-08T07:10:46.741Z,8.70
2024-02-08T07:12:06.939Z,8.79
2024-02-08T07:13:26.889Z,8.95
2024-02-08T07:14:46.872Z,9.12
2024-02-08T07:16:06.785Z,9.32
2024-02-08T07:17:31.483Z,9.44
2024-02-08T07:18:55.568Z,9.58
2024-02-08T07:20:22.828Z,9.73
2024-02-08T07:21:43.164Z,9.75
2024-02-08T07:23:03.060Z,9.80
2024-02-08T07:24:23.654Z,9.93
2024-02-08T07:25:43.654Z,9.97
2024-02-08T07:27:03.787Z,9.93
2024-02-08T07:28:23.988Z,9.89
2024-02-08T07:29:44.660Z,9.84
2024-02-08T07:31:04.738Z,9.85
2024-02-08T07:32:25.208Z,9.82
2024-02-08T07:33:45.176Z,9.81
2024-02-08T07:35:05.422Z,9.68
2024-02-08T07:36:26.063Z,9.52
2024-02-08T07:37:28.176Z,9.51
2024-02-08T07:38:48.257Z,9.46
2024-02-08T07:39:55.862Z,9.51
2024-02-08T07:40:57.561Z,9.58
2024-02-08T07:41:59.226Z,9.66
2024-02-08T07:43:16.802Z,9.65
2024-02-08T07:44:24.197Z,9.63
2024-02-08T07:45:28.840Z,9.71
2024-02-08T07:46:33.303Z,9.86
2024-02-08T07:47:35.432Z,10.03
2024-02-08T07:48:40.877Z,10.22
2024-02-08T07:49:44.331Z,10.41
2024-02-08T07:50:46.830Z,10.59
2024-02-08T07:51:51.765Z,10.78
2024-02-08T07:52:59.530Z,10.94
2024-02-08T07:54:01.582Z,11.05
2024-02-08T07:55:16.314Z,11.18
2024-02-08T07:56:25.003Z,11.39
2024-02-08T07:57:27.420Z,11.59
2024-02-08T07:58:29.213Z,11.71
2024-02-08T07:59:36.310Z,11.78
2024-02-08T08:00:40.985Z,11.89
2024-02-08T08:01:50.567Z,11.94
2024-02-08T08:02:52.360Z,11.93
2024-02-08T08:03:58.044Z,11.95
2024-02-08T08:05:00.118Z,12.08
2024-02-08T08:06:07.696Z,12.22
2024-02-08T08:07:10.873Z,12.41
2024-02-08T08:08:26.821Z,12.57
2024-02-08T08:09:29.186Z,12.82
2024-02-08T08:10:34.756Z,12.99
2024-02-08T08:11:40.992Z,12.86
2024-02-08T08:12:48.102Z,12.71
2024-02-08T08:13:55.541Z,12.72
2024-02-08T08:15:03.790Z,12.68
2024-02-08T08:16:24.183Z,12.66
2024-02-08T08:17:25.897Z,12.54
2024-02-08T08:18:31.428Z,12.48
2024-02-08T08:19:40.214Z,12.56
2024-02-08T08:20:57.445Z,12.71
2024-02-08T08:21:59.413Z,12.83
2024-02-08T08:23:01.267Z,12.94
2024-02-08T08:24:03.789Z,13.07
2024-02-08T08:25:26.560Z,13.24
2024-02-08T08:26:40.483Z,13.41
2024-02-08T08:28:11.864Z,13.43
2024-02-08T08:29:19.223Z,13.60
2024-02-08T08:30:32.529Z,13.63
2024-02-08T08:31:39.234Z,13.73
2024-02-08T08:32:40.990Z,13.70
2024-02-08T08:34:02.164Z,13.77
2024-02-08T08:35:24.171Z,13.81
2024-02-08T08:36:36.112Z,13.43
2024-02-08T08:37:41.373Z,13.45
2024-02-08T08:38:45.886Z,13.53
2024-02-08T08:40:22.172Z,13.69
2024-02-08T08:41:25.678Z,13.89
2024-02-08T08:42:30.191Z,14.01
2024-02-08T08:43:37.762Z,14.13
2024-02-08T08:44:49.862Z,14.21
2024-02-08T08:46:06.556Z,14.17
2024-02-08T08:47:11.015Z,14.08
2024-02-08T08:48:13.163Z,14.06
2024-02-08T08:49:16.427Z,14.13
2024-02-08T08:50:20.133Z,14.31
2024-02-08T08:51:31.988Z,14.41
2024-02-08T08:52:48.332Z,14.53
2024-02-08T08:54:15.521Z,14.69
2024-02-08T08:55:21.751Z,14.76
2024-02-08T08:56:23.602Z,14.86
2024-02-08T08:57:26.561Z,14.94
2024-02-08T08:58:40.314Z,14.89
2024-02-08T08:59:44.081Z,14.87
2024-02-08T09:00:49.100Z,14.93
2024-02-08T09:01:50.903Z,14.87
2024-02-08T09:02:56.639Z,14.97
2024-02-08T09:04:11.901Z,14.96
2024-02-08T09:05:22.423Z,15.08
2024-02-08T09:06:27.614Z,15.27
2024-02-08T09:07:31.787Z,15.32
2024-02-08T09:08:43.414Z,15.39
2024-02-08T09:10:04.150Z,15.42
2024-02-08T09:11:06.151Z,15.42
2024-02-08T09:12:09.139Z,15.35
2024-02-08T09:13:17.286Z,15.39
2024-02-08T09:14:19.154Z,15.52
2024-02-08T09:15:28.119Z,15.55
2024-02-08T09:16:38.283Z,15.56
2024-02-08T09:17:53.187Z,15.52
2024-02-08T09:19:03.533Z,15.55
2024-02-08T09:20:21.124Z,15.64
2024-02-08T09:21:27.301Z,15.74
2024-02-08T09:22:35.988Z,15.80
2024-02-08T09:23:39.522Z,15.71
2024-02-08T09:24:45.749Z,15.76
2024-02-08T09:25:48.128Z,15.83
2024-02-08T09:26:50.391Z,15.96
2024-02-08T09:27:58.115Z,15.93
2024-02-08T09:29:01.452Z,15.83
2024-02-08T09:30:10.510Z,15.94
2024-02-08T09:31:15.307Z,15.80
2024-02-08T09:32:35.733Z,15.84
2024-02-08T09:33:46.844Z,15.96
2024-02-08T09:34:54.727Z,16.04
2024-02-08T09:36:02.384Z,16.11
2024-02-08T09:37:07.824Z,16.14
2024-02-08T09:38:11.029Z,16.17
2024-02-08T09:39:20.624Z,16.14
2024-02-08T09:40:31.506Z,16.17
2024-02-08T09:41:35.734Z,16.22
2024-02-08T09:42:39.350Z,15.90
2024-02-08T09:43:45.862Z,15.87
2024-02-08T09:44:50.882Z,15.91
2024-02-08T09:46:12.952Z,16.01
2024-02-08T09:47:27.042Z,16.05
2024-02-08T09:48:38.233Z,15.95
2024-02-08T09:49:40.948Z,15.88
2024-02-08T09:50:51.363Z,15.92
2024-02-08T09:51:55.276Z,15.99
2024-02-08T09:53:08.332Z,15.98
2024-02-08T09:54:28.819Z,15.93
2024-02-08T09:55:33.653Z,15.98
2024-02-08T09:56:51.043Z,16.06
2024-02-08T09:57:55.014Z,16.16
2024-02-08T09:59:10.312Z,16.18
2024-02-08T10:00:36.335Z,16.25
2024-02-08T10:01:45.671Z,16.34
2024-02-08T10:03:04.966Z,16.38
2024-02-08T10:04:17.324Z,16.34
2024-02-08T10:05:42.351Z,16.29
2024-02-08T10:06:57.854Z,16.35
2024-02-08T10:08:20.205Z,16.53
2024-02-08T10:09:42.054Z,16.65
2024-02-08T10:11:01.248Z,16.74
2024-02-08T10:12:08.734Z,16.85
2024-02-08T10:13:26.743Z,16.91
2024-02-08T10:14:34.108Z,17.03
2024-02-08T10:15:52.590Z,17.11
2024-02-08T10:17:02.108Z,17.18
2024-02-08T10:18:10.392Z,17.18
2024-02-08T10:19:29.731Z,17.14
2024-02-08T10:20:46.608Z,17.05
2024-02-08T10:21:48.518Z,16.95
2024-02-08T10:23:09.556Z,16.94
2024-02-08T10:24:28.110Z,17.07
2024-02-08T10:25:49.753Z,17.14
2024-02-08T10:26:51.433Z,17.14
2024-02-08T10:27:56.913Z,17.21
2024-02-08T10:28:59.353Z,17.24
2024-02-08T10:30:09.783Z,17.23
2024-02-08T10:31:20.224Z,17.24
2024-02-08T10:32:21.932Z,17.31
2024-02-08T10:33:25.889Z,17.38
2024-02-08T10:34:41.969Z,17.49
2024-02-08T10:35:44.442Z,17.62
2024-02-08T10:36:46.901Z,17.50
2024-02-08T10:37:56.547Z,17.44
2024-02-08T10:39:08.926Z,17.39
2024-02-08T10:40:44.640Z,17.30
2024-02-08T10:41:59.177Z,17.42
2024-02-08T10:43:18.033Z,17.46
2024-02-08T10:44:24.401Z,17.38
2024-02-08T10:45:27.362Z,17.35
2024-02-08T10:46:35.488Z,17.31
2024-02-08T10:47:42.478Z,17.32
2024-02-08T10:48:50.509Z,17.32
2024-02-08T10:49:53.382Z,17.40
2024-02-08T10:51:01.284Z,17.39
2024-02-08T10:52:04.526Z,17.41
2024-02-08T10:53:17.482Z,17.45
2024-02-08T10:54:24.639Z,17.41
2024-02-08T10:55:38.640Z,17.43
2024-02-08T10:56:49.762Z,17.35
2024-02-08T10:58:09.775Z,17.38
2024-02-08T10:59:32.920Z,17.51
2024-02-08T11:00:58.514Z,17.52
2024-02-08T11:02:03.237Z,17.50
2024-02-08T11:03:24.512Z,17.50
2024-02-08T11:04:32.481Z,17.58
2024-02-08T11:05:50.351Z,17.60
2024-02-08T11:07:13.855Z,17.50
2024-02-08T11:08:26.293Z,17.47
2024-02-08T11:09:28.839Z,17.49
2024-02-08T11:10:33.957Z,17.55
2024-02-08T11:11:40.237Z,17.55
2024-02-08T11:12:42.174Z,17.55
2024-02-08T11:13:46.928Z,17.58
2024-02-08T11:14:58.250Z,17.56
2024-02-08T11:16:21.075Z,17.60
2024-02-08T11:17:33.788Z,17.66
2024-02-08T11:18:36.812Z,17.69
2024-02-08T11:19:41.010Z,17.70
2024-02-08T11:20:45.802Z,17.76
2024-02-08T11:21:50.912Z,17.85
2024-02-08T11:22:58.995Z,17.90
2024-02-08T11:24:02.581Z,17.97
2024-02-08T11:25:20.877Z,17.92
2024-02-08T11:26:27.532Z,17.93
2024-02-08T11:27:29.535Z,17.97
2024-02-08T11:28:45.652Z,17.99
2024-02-08T11:29:47.547Z,17.98
2024-02-08T11:30:52.379Z,18.03
2024-02-08T11:31:57.224Z,18.09
2024-02-08T11:33:03.267Z,18.15
2024-02-08T11:34:15.447Z,18.17
2024-02-08T11:35:22.013Z,18.19
2024-02-08T11:36:35.998Z,18.20
2024-02-08T11:37:39.674Z,18.22
2024-02-08T11:38:47.034Z,18.24
2024-02-08T11:40:01.601Z,18.25
2024-02-08T11:41:15.249Z,18.25
2024-02-08T11:42:18.976Z,18.23
2024-02-08T11:43:25.050Z,18.24
2024-02-08T11:44:37.347Z,18.28
2024-02-08T11:45:42.688Z,18.28
2024-02-08T11:46:52.663Z,18.31
2024-02-08T11:47:54.751Z,18.32
2024-02-08T11:49:11.720Z,18.35
2024-02-08T11:50:23.808Z,18.30
2024-02-08T11:51:25.596Z,18.31
2024-02-08T11:52:28.857Z,18.31
2024-02-08T11:53:32.959Z,18.29
2024-02-08T11:54:39.243Z,18.28
2024-02-08T11:55:46.342Z,18.31
2024-02-08T11:56:50.177Z,18.43
2024-02-08T11:57:55.008Z,18.44
2024-02-08T11:58:59.316Z,18.37
2024-02-08T12:00:01.232Z,18.36
2024-02-08T12:01:05.068Z,18.38
2024-02-08T12:02:09.739Z,18.38
2024-02-08T12:03:13.896Z,18.38
2024-02-08T12:04:17.603Z,18.41
2024-02-08T12:05:21.581Z,18.39
2024-02-08T12:06:23.562Z,18.37
2024-02-08T12:07:25.355Z,18.38
2024-02-08T12:08:36.835Z,18.39
2024-02-08T12:09:42.430Z,18.39
2024-02-08T12:10:49.502Z,18.35
2024-02-08T12:11:52.804Z,18.41
2024-02-08T12:12:55.418Z,18.37
2024-02-08T12:14:20.893Z,18.36
2024-02-08T12:15:29.711Z,18.37
2024-02-08T12:16:32.246Z,18.31
2024-02-08T12:17:33.969Z,18.30
2024-02-08T12:18:37.122Z,18.31
2024-02-08T12:19:39.414Z,18.35
2024-02-08T12:20:45.116Z,18.37
2024-02-08T12:21:58.081Z,18.38
2024-02-08T12:23:02.633Z,18.36
2024-02-08T12:24:04.472Z,18.36
2024-02-08T12:25:09.133Z,18.37
2024-02-08T12:26:13.288Z,18.40
2024-02-08T12:27:26.544Z,18.35
2024-02-08T12:28:31.529Z,18.39
2024-02-08T12:29:36.939Z,18.39
2024-02-08T12:30:41.943Z,18.37
2024-02-08T12:31:47.478Z,18.38
2024-02-08T12:32:52.696Z,18.42
2024-02-08T12:33:54.706Z,18.45
2024-02-08T12:34:56.603Z,18.45
2024-02-08T12:36:01.348Z,18.46
2024-02-08T12:37:07.786Z,18.49
2024-02-08T12:38:12.399Z,18.55
2024-02-08T12:39:19.737Z,18.54
2024-02-08T12:40:21.836Z,18.58
2024-02-08T12:41:23.778Z,18.51
2024-02-08T12:42:25.444Z,18.51
2024-02-08T12:43:27.098Z,18.51
2024-02-08T12:44:28.729Z,18.48
2024-02-08T12:45:30.393Z,18.51
2024-02-08T12:46:32.865Z,18.46
2024-02-08T12:47:34.553Z,18.48
2024-02-08T12:48:36.878Z,18.46
2024-02-08T12:49:38.613Z,18.40
2024-02-08T12:50:42.239Z,18.40
2024-02-08T12:51:44.015Z,18.42
2024-02-08T12:52:45.823Z,18.45
2024-02-08T12:53:58.206Z,18.45
2024-02-08T12:55:01.838Z,18.45
2024-02-08T12:56:14.997Z,18.38
2024-02-08T12:57:20.198Z,18.36
2024-02-08T12:58:25.347Z,18.28
2024-02-08T12:59:30.833Z,18.29
2024-02-08T13:00:35.401Z,18.27
2024-02-08T13:01:49.000Z,18.29
2024-02-08T13:02:55.696Z,18.29
2024-02-08T13:03:57.596Z,18.25
2024-02-08T13:05:02.505Z,18.26
2024-02-08T13:06:05.411Z,18.26
2024-02-08T13:07:07.814Z,18.20
2024-02-08T13:08:11.131Z,18.20
2024-02-08T13:09:27.816Z,18.23
2024-02-08T13:10:34.621Z,18.22
2024-02-08T13:11:38.094Z,18.23
2024-02-08T13:12:39.742Z,18.26
2024-02-08T13:13:42.332Z,18.22
2024-02-08T13:14:49.866Z,18.19
2024-02-08T13:16:00.516Z,18.19
2024-02-08T13:17:05.956Z,18.17
2024-02-08T13:18:11.194Z,18.11
2024-02-08T13:19:15.284Z,18.14
2024-02-08T13:20:18.423Z,18.22
2024-02-08T13:21:25.775Z,18.19
2024-02-08T13:22:34.018Z,18.15
2024-02-08T13:23:38.160Z,18.18
2024-02-08T13:24:39.743Z,18.22
2024-02-08T13:25:42.494Z,18.17
2024-02-08T13:26:44.124Z,18.13
2024-02-08T13:27:46.659Z,18.13
2024-02-08T13:28:48.652Z,18.10
2024-02-08T13:29:52.357Z,18.13
2024-02-08T13:30:58.532Z,18.11
2024-02-08T13:32:00.285Z,18.12
2024-02-08T13:33:06.437Z,18.15
2024-02-08T13:34:10.778Z,18.15
2024-02-08T13:35:21.541Z,18.11
2024-02-08T13:36:27.499Z,18.09
2024-02-08T13:37:29.257Z,18.08
2024-02-08T13:38:31.746Z,18.05
2024-02-08T13:39:34.000Z,18.08
2024-02-08T13:40:44.064Z,18.12
2024-02-08T13:41:47.592Z,18.12
2024-02-08T13:42:55.245Z,18.14
2024-02-08T13:43:57.816Z,18.12
2024-02-08T13:45:02.508Z,18.11
2024-02-08T13:46:06.332Z,18.09
2024-02-08T13:47:14.615Z,18.10
2024-02-08T13:48:19.891Z,18.14
2024-02-08T13:49:25.992Z,18.05
2024-02-08T13:50:31.739Z,18.09
2024-02-08T13:51:38.544Z,18.11
2024-02-08T13:52:40.314Z,18.09
2024-02-08T13:53:42.834Z,18.11
2024-02-08T13:54:45.309Z,18.04
2024-02-08T13:55:54.307Z,18.02
2024-02-08T13:56:57.431Z,18.04
2024-02-08T13:58:01.850Z,18.04
2024-02-08T13:59:03.498Z,18.09
2024-02-08T14:00:09.512Z,18.09
2024-02-08T14:01:12.885Z,18.09
2024-02-08T14:02:16.755Z,18.11
2024-02-08T14:03:23.772Z,18.13
2024-02-08T14:04:25.667Z,18.09
2024-02-08T14:05:30.443Z,18.11
2024-02-08T14:06:32.746Z,18.13
2024-02-08T14:07:34.520Z,18.09
2024-02-08T14:08:42.557Z,18.08
2024-02-08T14:09:45.752Z,18.06
2024-02-08T14:10:47.509Z,18.04
2024-02-08T14:11:53.742Z,18.02
2024-02-08T14:13:00.878Z,18.04
2024-02-08T14:14:04.520Z,18.02
2024-02-08T14:15:07.833Z,17.96
2024-02-08T14:16:16.728Z,17.97
2024-02-08T14:17:21.986Z,17.95
2024-02-08T14:18:33.158Z,17.93
2024-02-08T14:19:38.314Z,17.92
2024-02-08T14:20:45.025Z,17.92
2024-02-08T14:21:46.635Z,17.92
2024-02-08T14:23:11.254Z,17.84
2024-02-08T14:24:15.600Z,17.88
2024-02-08T14:25:25.264Z,17.84
2024-02-08T14:26:38.905Z,17.83
2024-02-08T14:27:41.389Z,17.81
2024-02-08T14:28:49.289Z,17.75
2024-02-08T14:29:51.971Z,17.72
2024-02-08T14:30:53.549Z,17.68
2024-02-08T14:31:55.387Z,17.66
2024-02-08T14:32:57.028Z,17.67
2024-02-08T14:33:58.706Z,17.62
2024-02-08T14:35:00.771Z,17.62
2024-02-08T14:36:09.856Z,17.62
2024-02-08T14:37:11.950Z,17.59
2024-02-08T14:38:15.618Z,17.63
2024-02-08T14:39:30.545Z,17.62
2024-02-08T14:40:33.384Z,17.64
2024-02-08T14:41:35.873Z,17.59
2024-02-08T14:42:40.000Z,17.54
2024-02-08T14:43:47.784Z,17.52